Angela K — WDE9722 — position and weather

sailwx.info

Track history (hours):
 
Tides and Currents Weather Stations Pressure Air Temp Water Temp Dewpoint Dewpoint Depression Visibility Wind Speed Wind Dir Waves Ship Positions

Angela K

Owner: SCF Waxler Marine LLC, St. Rose, LA. More information available from US FCC via Universal Licensing System and Coast Guard Vessel Documentation Center.

Last reported at 2018-Feb-15 07:31 UTC. Time now 2018-Feb-21 22:57 UTC.
Position N 32°49' W 091°09'.

Length 57 m.

Type: Cargo ship. MMSI: 367420490.

Date/timePositionNaut miles runAvg speedWind from/ knotsBaromVisibWave heightAir tempDewpointWater temp
2018-Feb-15 07:31N 32°49' W 091°09'1 3.8
2018-Feb-15 07:12N 32°48' W 091°09'1 4.5
2018-Feb-15 07:00N 32°47' W 091°10'2 4.8
2018-Feb-15 06:29N 32°44' W 091°09'4 1.9
2018-Feb-15 04:12N 32°40' W 091°07'3 4.3
2018-Feb-15 03:28N 32°38' W 091°09'2 4.4
2018-Feb-15 03:00N 32°36' W 091°08'2 4.8
2018-Feb-15 02:30N 32°34' W 091°06'3 4.5
2018-Feb-15 01:54N 32°31' W 091°06'2 4.9
2018-Feb-15 01:30N 32°29' W 091°07'2 4.8
2018-Feb-15 01:00N 32°27' W 091°06'2 4.9
2018-Feb-15 00:30N 32°26' W 091°03'2 4.7
2018-Feb-15 00:00N 32°25' W 091°00'2 4.2
2018-Feb-14 23:30N 32°23' W 090°60'2 4.4
2018-Feb-14 23:00N 32°21' W 090°60'3 5.4
2018-Feb-14 22:30N 32°21' W 090°56'2 4.6
2018-Feb-14 22:00N 32°20' W 090°54'2 3.6
2018-Feb-14 21:30N 32°18' W 090°55'0 0.1
2018-Feb-14 21:00N 32°18' W 090°55'0 0.0
2018-Feb-14 20:30N 32°18' W 090°55'0 0.3
2018-Feb-14 20:00N 32°18' W 090°55'0 0.2
2018-Feb-14 19:30N 32°18' W 090°55'0 0.1
2018-Feb-14 19:00N 32°18' W 090°55'0 0.1
2018-Feb-14 18:29N 32°18' W 090°55'1 2.1
2018-Feb-14 18:00N 32°17' W 090°56'2 5.0
2018-Feb-14 17:30N 32°16' W 090°58'2 4.5
2018-Feb-14 17:00N 32°13' W 090°59'2 4.6
2018-Feb-14 16:30N 32°11' W 090°60'2 4.6
2018-Feb-14 16:00N 32°09' W 091°00'2 4.4
2018-Feb-14 15:30N 32°07' W 091°02'3 4.7
2018-Feb-14 14:48N 32°08' W 091°05'1 4.3
2018-Feb-14 14:30N 32°07' W 091°07'2 1.6
2018-Feb-14 13:11N 32°05' W 091°05'3 4.4
2018-Feb-14 12:33N 32°03' W 091°03'0 4.5
2018-Feb-14 12:30N 32°03' W 091°03'  
2018-Feb-05 16:24N 31°60' W 091°05'3 8.1
2018-Feb-05 15:58N 32°03' W 091°03'4 7.4
2018-Feb-05 15:27N 32°06' W 091°06'3 2.9
2018-Feb-05 14:30N 32°07' W 091°03'3 6.6
2018-Feb-05 14:00N 32°10' W 091°00'16 5.4
2018-Feb-05 11:00N 32°26' W 091°02'3 5.5
2018-Feb-05 10:30N 32°27' W 091°05'3 7.0
2018-Feb-05 10:00N 32°30' W 091°07'7 7.1
2018-Feb-05 09:00N 32°37' W 091°09'  
Track history (hours):
 
Tides and Currents Weather Stations Pressure Air Temp Water Temp Dewpoint Dewpoint Depression Visibility Wind Speed Wind Dir Waves Ship Positions

Angela K

Owner: SCF Waxler Marine LLC, St. Rose, LA. More information available from US FCC via Universal Licensing System and Coast Guard Vessel Documentation Center.

Last reported at 2018-Feb-15 07:31 UTC. Time now 2018-Feb-21 22:57 UTC.
Position N 32°49' W 091°09'.

Length 57 m.

Type: Cargo ship. MMSI: 367420490.

Date/timePositionNaut miles runAvg speedWind from/ knotsBaromVisibWave heightAir tempDewpointWater temp
2018-Feb-15 07:31N 32°49' W 091°09'1 3.8
2018-Feb-15 07:12N 32°48' W 091°09'1 4.5
2018-Feb-15 07:00N 32°47' W 091°10'2 4.8
2018-Feb-15 06:29N 32°44' W 091°09'4 1.9
2018-Feb-15 04:12N 32°40' W 091°07'3 4.3
2018-Feb-15 03:28N 32°38' W 091°09'2 4.4
2018-Feb-15 03:00N 32°36' W 091°08'2 4.8
2018-Feb-15 02:30N 32°34' W 091°06'3 4.5
2018-Feb-15 01:54N 32°31' W 091°06'2 4.9
2018-Feb-15 01:30N 32°29' W 091°07'2 4.8
2018-Feb-15 01:00N 32°27' W 091°06'2 4.9
2018-Feb-15 00:30N 32°26' W 091°03'2 4.7
2018-Feb-15 00:00N 32°25' W 091°00'2 4.2
2018-Feb-14 23:30N 32°23' W 090°60'2 4.4
2018-Feb-14 23:00N 32°21' W 090°60'3 5.4
2018-Feb-14 22:30N 32°21' W 090°56'2 4.6
2018-Feb-14 22:00N 32°20' W 090°54'2 3.6
2018-Feb-14 21:30N 32°18' W 090°55'0 0.1
2018-Feb-14 21:00N 32°18' W 090°55'0 0.0
2018-Feb-14 20:30N 32°18' W 090°55'0 0.3
2018-Feb-14 20:00N 32°18' W 090°55'0 0.2
2018-Feb-14 19:30N 32°18' W 090°55'0 0.1
2018-Feb-14 19:00N 32°18' W 090°55'0 0.1
2018-Feb-14 18:29N 32°18' W 090°55'1 2.1
2018-Feb-14 18:00N 32°17' W 090°56'2 5.0
2018-Feb-14 17:30N 32°16' W 090°58'2 4.5
2018-Feb-14 17:00N 32°13' W 090°59'2 4.6
2018-Feb-14 16:30N 32°11' W 090°60'2 4.6
2018-Feb-14 16:00N 32°09' W 091°00'2 4.4
2018-Feb-14 15:30N 32°07' W 091°02'3 4.7
2018-Feb-14 14:48N 32°08' W 091°05'1 4.3
2018-Feb-14 14:30N 32°07' W 091°07'2 1.6
2018-Feb-14 13:11N 32°05' W 091°05'3 4.4
2018-Feb-14 12:33N 32°03' W 091°03'0 4.5
2018-Feb-14 12:30N 32°03' W 091°03'  
2018-Feb-05 16:24N 31°60' W 091°05'3 8.1
2018-Feb-05 15:58N 32°03' W 091°03'4 7.4
2018-Feb-05 15:27N 32°06' W 091°06'3 2.9
2018-Feb-05 14:30N 32°07' W 091°03'3 6.6
2018-Feb-05 14:00N 32°10' W 091°00'16 5.4
2018-Feb-05 11:00N 32°26' W 091°02'3 5.5
2018-Feb-05 10:30N 32°27' W 091°05'3 7.0
2018-Feb-05 10:00N 32°30' W 091°07'7 7.1
2018-Feb-05 09:00N 32°37' W 091°09'  

Dump ship's entire track history